sensor_id;sensor_type;location;lat;lon;timestamp;P1;durP1;ratioP1;P2;durP2;ratioP2
16967;SDS011;64862;54.398;10.126;2023-12-20T00:09:45;22.50;;;2.88;;
16967;SDS011;64862;54.398;10.126;2023-12-20T00:19:49;23.85;;;2.38;;
16967;SDS011;64862;54.398;10.126;2023-12-20T00:29:51;20.50;;;2.35;;
16967;SDS011;64862;54.398;10.126;2023-12-20T00:39:54;24.42;;;2.60;;
16967;SDS011;64862;54.398;10.126;2023-12-20T00:49:56;23.55;;;2.42;;
16967;SDS011;64862;54.398;10.126;2023-12-20T01:00:00;24.20;;;2.92;;
16967;SDS011;64862;54.398;10.126;2023-12-20T01:10:03;24.50;;;2.83;;
16967;SDS011;64862;54.398;10.126;2023-12-20T01:20:08;23.75;;;2.63;;
16967;SDS011;64862;54.398;10.126;2023-12-20T01:30:10;24.58;;;2.40;;
16967;SDS011;64862;54.398;10.126;2023-12-20T01:40:14;20.67;;;2.40;;
16967;SDS011;64862;54.398;10.126;2023-12-20T01:50:16;16.58;;;1.90;;
16967;SDS011;64862;54.398;10.126;2023-12-20T02:00:20;22.42;;;2.20;;
16967;SDS011;64862;54.398;10.126;2023-12-20T02:10:26;20.33;;;2.05;;
16967;SDS011;64862;54.398;10.126;2023-12-20T02:20:31;17.80;;;2.40;;
16967;SDS011;64862;54.398;10.126;2023-12-20T02:30:34;21.40;;;2.15;;
16967;SDS011;64862;54.398;10.126;2023-12-20T02:40:36;22.05;;;2.08;;
16967;SDS011;64862;54.398;10.126;2023-12-20T02:50:40;24.00;;;2.17;;
16967;SDS011;64862;54.398;10.126;2023-12-20T03:00:42;19.10;;;2.03;;
16967;SDS011;64862;54.398;10.126;2023-12-20T03:10:46;19.77;;;2.25;;
16967;SDS011;64862;54.398;10.126;2023-12-20T03:20:48;12.32;;;1.70;;
16967;SDS011;64862;54.398;10.126;2023-12-20T03:30:53;20.67;;;2.03;;
16967;SDS011;64862;54.398;10.126;2023-12-20T03:41:02;18.52;;;1.98;;
16967;SDS011;64862;54.398;10.126;2023-12-20T03:51:07;20.08;;;2.05;;
16967;SDS011;64862;54.398;10.126;2023-12-20T04:01:09;23.80;;;2.60;;
16967;SDS011;64862;54.398;10.126;2023-12-20T04:11:13;17.60;;;2.70;;
16967;SDS011;64862;54.398;10.126;2023-12-20T04:21:16;19.20;;;2.28;;
16967;SDS011;64862;54.398;10.126;2023-12-20T04:31:20;23.70;;;2.45;;
16967;SDS011;64862;54.398;10.126;2023-12-20T04:41:22;24.83;;;2.25;;
16967;SDS011;64862;54.398;10.126;2023-12-20T04:51:26;17.70;;;2.28;;
16967;SDS011;64862;54.398;10.126;2023-12-20T05:01:28;22.92;;;2.63;;
16967;SDS011;64862;54.398;10.126;2023-12-20T05:11:32;21.45;;;2.63;;
16967;SDS011;64862;54.398;10.126;2023-12-20T05:21:35;24.45;;;2.70;;
16967;SDS011;64862;54.398;10.126;2023-12-20T05:31:39;23.33;;;3.00;;
16967;SDS011;64862;54.398;10.126;2023-12-20T05:41:41;18.58;;;2.70;;
16967;SDS011;64862;54.398;10.126;2023-12-20T05:51:45;26.73;;;2.92;;
16967;SDS011;64862;54.398;10.126;2023-12-20T06:01:47;29.15;;;2.92;;
16967;SDS011;64862;54.398;10.126;2023-12-20T06:11:50;25.33;;;3.25;;
16967;SDS011;64862;54.398;10.126;2023-12-20T06:21:53;23.17;;;3.03;;
16967;SDS011;64862;54.398;10.126;2023-12-20T06:31:58;22.00;;;2.67;;
16967;SDS011;64862;54.398;10.126;2023-12-20T06:42:01;14.60;;;2.05;;
16967;SDS011;64862;54.398;10.126;2023-12-20T06:52:05;19.67;;;2.42;;
16967;SDS011;64862;54.398;10.126;2023-12-20T07:02:08;18.23;;;1.92;;
16967;SDS011;64862;54.398;10.126;2023-12-20T07:12:12;18.42;;;2.30;;
16967;SDS011;64862;54.398;10.126;2023-12-20T07:22:14;15.07;;;2.10;;
16967;SDS011;64862;54.398;10.126;2023-12-20T07:32:19;22.88;;;2.88;;
16967;SDS011;64862;54.398;10.126;2023-12-20T07:42:21;32.88;;;3.88;;
16967;SDS011;64862;54.398;10.126;2023-12-20T07:52:25;28.27;;;3.90;;
16967;SDS011;64862;54.398;10.126;2023-12-20T08:02:27;27.75;;;3.75;;
16967;SDS011;64862;54.398;10.126;2023-12-20T08:12:31;25.95;;;3.20;;
16967;SDS011;64862;54.398;10.126;2023-12-20T08:22:33;13.50;;;2.00;;
16967;SDS011;64862;54.398;10.126;2023-12-20T08:32:37;16.45;;;2.78;;
16967;SDS011;64862;54.398;10.126;2023-12-20T08:42:39;12.70;;;1.65;;
16967;SDS011;64862;54.398;10.126;2023-12-20T08:52:42;11.45;;;1.50;;
16967;SDS011;64862;54.398;10.126;2023-12-20T09:02:44;8.85;;;1.30;;
16967;SDS011;64862;54.398;10.126;2023-12-20T09:12:48;7.95;;;0.85;;
16967;SDS011;64862;54.398;10.126;2023-12-20T09:22:50;6.57;;;0.70;;
16967;SDS011;64862;54.398;10.126;2023-12-20T09:32:54;6.97;;;0.90;;
16967;SDS011;64862;54.398;10.126;2023-12-20T09:42:56;5.65;;;0.85;;
16967;SDS011;64862;54.398;10.126;2023-12-20T09:53:01;7.93;;;1.17;;
16967;SDS011;64862;54.398;10.126;2023-12-20T10:03:06;6.57;;;0.70;;
16967;SDS011;64862;54.398;10.126;2023-12-20T10:13:11;10.45;;;1.00;;
16967;SDS011;64862;54.398;10.126;2023-12-20T10:23:14;13.90;;;1.30;;
16967;SDS011;64862;54.398;10.126;2023-12-20T10:33:24;12.60;;;1.55;;
16967;SDS011;64862;54.398;10.126;2023-12-20T10:43:27;13.63;;;1.02;;
16967;SDS011;64862;54.398;10.126;2023-12-20T10:53:31;12.43;;;1.20;;
16967;SDS011;64862;54.398;10.126;2023-12-20T11:03:36;11.30;;;1.27;;
16967;SDS011;64862;54.398;10.126;2023-12-20T11:13:41;16.70;;;1.58;;
16967;SDS011;64862;54.398;10.126;2023-12-20T11:23:55;10.55;;;1.42;;
16967;SDS011;64862;54.398;10.126;2023-12-20T11:34:01;15.20;;;1.75;;
16967;SDS011;64862;54.398;10.126;2023-12-20T11:44:14;10.60;;;1.42;;
16967;SDS011;64862;54.398;10.126;2023-12-20T11:54:21;14.98;;;1.90;;
16967;SDS011;64862;54.398;10.126;2023-12-20T12:04:22;17.95;;;2.38;;
16967;SDS011;64862;54.398;10.126;2023-12-20T12:14:26;16.63;;;2.50;;
16967;SDS011;64862;54.398;10.126;2023-12-20T12:24:28;13.60;;;2.60;;
16967;SDS011;64862;54.398;10.126;2023-12-20T12:34:32;15.63;;;2.60;;
16967;SDS011;64862;54.398;10.126;2023-12-20T12:44:34;14.38;;;2.97;;
16967;SDS011;64862;54.398;10.126;2023-12-20T12:54:37;17.02;;;3.35;;
16967;SDS011;64862;54.398;10.126;2023-12-20T13:04:40;24.33;;;3.10;;
16967;SDS011;64862;54.398;10.126;2023-12-20T13:14:44;22.13;;;3.45;;
16967;SDS011;64862;54.398;10.126;2023-12-20T13:24:46;30.63;;;4.40;;
16967;SDS011;64862;54.398;10.126;2023-12-20T13:34:49;25.75;;;4.18;;
16967;SDS011;64862;54.398;10.126;2023-12-20T13:44:51;30.88;;;4.43;;
16967;SDS011;64862;54.398;10.126;2023-12-20T13:54:55;20.02;;;3.80;;
16967;SDS011;64862;54.398;10.126;2023-12-20T14:04:56;20.48;;;3.70;;
16967;SDS011;64862;54.398;10.126;2023-12-20T14:15:00;20.92;;;4.15;;
16967;SDS011;64862;54.398;10.126;2023-12-20T14:25:02;24.80;;;4.28;;
16967;SDS011;64862;54.398;10.126;2023-12-20T14:35:06;20.05;;;3.90;;
16967;SDS011;64862;54.398;10.126;2023-12-20T14:45:09;19.00;;;3.85;;
16967;SDS011;64862;54.398;10.126;2023-12-20T14:55:13;18.63;;;4.22;;
16967;SDS011;64862;54.398;10.126;2023-12-20T15:05:15;24.35;;;4.60;;
16967;SDS011;64862;54.398;10.126;2023-12-20T15:15:19;24.13;;;5.45;;
16967;SDS011;64862;54.398;10.126;2023-12-20T15:25:22;28.48;;;5.90;;
16967;SDS011;64862;54.398;10.126;2023-12-20T15:35:25;27.38;;;6.20;;
16967;SDS011;64862;54.398;10.126;2023-12-20T15:45:27;30.33;;;5.93;;
16967;SDS011;64862;54.398;10.126;2023-12-20T15:55:30;22.98;;;5.70;;
16967;SDS011;64862;54.398;10.126;2023-12-20T16:05:32;22.77;;;4.72;;
16967;SDS011;64862;54.398;10.126;2023-12-20T16:15:36;22.58;;;4.82;;
16967;SDS011;64862;54.398;10.126;2023-12-20T16:25:38;26.83;;;4.70;;
16967;SDS011;64862;54.398;10.126;2023-12-20T16:35:41;25.00;;;4.68;;
16967;SDS011;64862;54.398;10.126;2023-12-20T16:45:43;21.50;;;4.88;;
16967;SDS011;64862;54.398;10.126;2023-12-20T16:55:47;23.73;;;5.03;;
16967;SDS011;64862;54.398;10.126;2023-12-20T17:05:49;27.25;;;5.97;;
16967;SDS011;64862;54.398;10.126;2023-12-20T17:15:53;24.08;;;5.40;;
16967;SDS011;64862;54.398;10.126;2023-12-20T17:25:55;30.35;;;5.45;;
16967;SDS011;64862;54.398;10.126;2023-12-20T17:35:58;26.08;;;5.47;;
16967;SDS011;64862;54.398;10.126;2023-12-20T17:46:00;24.80;;;5.38;;
16967;SDS011;64862;54.398;10.126;2023-12-20T17:56:04;27.33;;;5.88;;
16967;SDS011;64862;54.398;10.126;2023-12-20T18:06:06;23.50;;;4.50;;
16967;SDS011;64862;54.398;10.126;2023-12-20T18:16:10;26.58;;;4.00;;
16967;SDS011;64862;54.398;10.126;2023-12-20T18:26:11;20.08;;;3.38;;
16967;SDS011;64862;54.398;10.126;2023-12-20T18:36:15;27.17;;;3.25;;
16967;SDS011;64862;54.398;10.126;2023-12-20T18:46:17;15.20;;;2.08;;
16967;SDS011;64862;54.398;10.126;2023-12-20T18:56:21;15.75;;;2.28;;
16967;SDS011;64862;54.398;10.126;2023-12-20T19:06:23;14.80;;;2.30;;
16967;SDS011;64862;54.398;10.126;2023-12-20T19:16:27;12.55;;;2.08;;
16967;SDS011;64862;54.398;10.126;2023-12-20T19:26:29;11.25;;;1.92;;
16967;SDS011;64862;54.398;10.126;2023-12-20T19:36:32;18.27;;;2.00;;
16967;SDS011;64862;54.398;10.126;2023-12-20T19:46:34;9.73;;;1.40;;
16967;SDS011;64862;54.398;10.126;2023-12-20T19:56:38;10.85;;;1.60;;
16967;SDS011;64862;54.398;10.126;2023-12-20T20:06:40;10.50;;;1.48;;
16967;SDS011;64862;54.398;10.126;2023-12-20T20:16:43;9.85;;;1.30;;
16967;SDS011;64862;54.398;10.126;2023-12-20T20:26:46;11.90;;;1.23;;
16967;SDS011;64862;54.398;10.126;2023-12-20T20:36:49;17.10;;;2.05;;
16967;SDS011;64862;54.398;10.126;2023-12-20T20:46:51;13.85;;;2.15;;
16967;SDS011;64862;54.398;10.126;2023-12-20T20:56:55;22.65;;;2.72;;
16967;SDS011;64862;54.398;10.126;2023-12-20T21:06:57;19.05;;;2.35;;
16967;SDS011;64862;54.398;10.126;2023-12-20T21:17:01;16.08;;;2.45;;
16967;SDS011;64862;54.398;10.126;2023-12-20T21:27:03;14.25;;;2.30;;
16967;SDS011;64862;54.398;10.126;2023-12-20T21:37:06;15.98;;;2.78;;
16967;SDS011;64862;54.398;10.126;2023-12-20T21:47:08;16.00;;;2.30;;
16967;SDS011;64862;54.398;10.126;2023-12-20T21:57:12;11.95;;;2.60;;
16967;SDS011;64862;54.398;10.126;2023-12-20T22:07:14;16.00;;;2.90;;
16967;SDS011;64862;54.398;10.126;2023-12-20T22:17:17;10.10;;;1.90;;
16967;SDS011;64862;54.398;10.126;2023-12-20T22:27:19;9.80;;;1.77;;
16967;SDS011;64862;54.398;10.126;2023-12-20T22:37:23;9.63;;;1.50;;
16967;SDS011;64862;54.398;10.126;2023-12-20T22:47:25;10.45;;;2.45;;
16967;SDS011;64862;54.398;10.126;2023-12-20T22:57:28;8.63;;;2.28;;
16967;SDS011;64862;54.398;10.126;2023-12-20T23:07:30;10.30;;;2.30;;
16967;SDS011;64862;54.398;10.126;2023-12-20T23:17:33;11.07;;;3.05;;
16967;SDS011;64862;54.398;10.126;2023-12-20T23:27:35;11.00;;;3.10;;
16967;SDS011;64862;54.398;10.126;2023-12-20T23:37:39;13.00;;;3.55;;
16967;SDS011;64862;54.398;10.126;2023-12-20T23:47:41;12.32;;;3.55;;
16967;SDS011;64862;54.398;10.126;2023-12-20T23:57:45;11.95;;;3.53;;
